createdAt,value
2016-08-25T00:00:34.401Z,63.95
2016-08-25T00:01:35.023Z,63.95
2016-08-25T00:02:35.655Z,64.05
2016-08-25T00:03:36.277Z,63.95
2016-08-25T00:04:36.902Z,64.05
2016-08-25T00:05:37.537Z,64.24
2016-08-25T00:06:38.160Z,64.15
2016-08-25T00:07:38.785Z,64.21
2016-08-25T00:08:39.405Z,64.05
2016-08-25T00:09:40.039Z,64.24
2016-08-25T00:10:40.651Z,64.31
2016-08-25T00:11:41.281Z,64.34
2016-08-25T00:12:41.901Z,64.4
2016-08-25T00:13:42.525Z,64.4
2016-08-25T00:14:43.147Z,64.24
2016-08-25T00:15:43.762Z,64.43
2016-08-25T00:16:44.388Z,64.43
2016-08-25T00:17:45.010Z,65.08
2016-08-25T00:18:45.628Z,64.79
2016-08-25T00:19:46.250Z,64.89
2016-08-25T00:20:46.873Z,64.69
2016-08-25T00:21:47.504Z,64.59
2016-08-25T00:22:48.118Z,64.82
2016-08-25T00:23:48.751Z,64.79
2016-08-25T00:24:49.387Z,64.79
2016-08-25T00:25:50.016Z,64.89
2016-08-25T00:26:50.629Z,65.08
2016-08-25T00:27:51.254Z,65.08
2016-08-25T00:28:51.875Z,64.79
2016-08-25T00:29:52.496Z,64.59
2016-08-25T00:30:53.120Z,64.98
2016-08-25T00:31:53.747Z,64.72
2016-08-25T00:32:54.378Z,64.89
2016-08-25T00:33:54.999Z,64.98
2016-08-25T00:34:55.631Z,64.98
2016-08-25T00:35:56.256Z,64.89
2016-08-25T00:36:56.882Z,64.89
2016-08-25T00:37:57.501Z,64.79
2016-08-25T00:38:58.127Z,64.98
2016-08-25T00:39:58.767Z,64.79
2016-08-25T00:40:59.397Z,65.08
2016-08-25T00:42:00.027Z,65.27
2016-08-25T00:43:00.667Z,64.98
2016-08-25T00:44:01.308Z,64.98
2016-08-25T00:45:01.934Z,64.89
2016-08-25T00:46:02.558Z,65.27
2016-08-25T00:47:03.185Z,64.89
2016-08-25T00:48:03.827Z,64.69
2016-08-25T00:49:04.452Z,64.89
2016-08-25T00:50:05.081Z,64.59
2016-08-25T00:51:05.697Z,64.89
2016-08-25T00:52:06.321Z,64.69
2016-08-25T00:53:06.944Z,65.17
2016-08-25T00:54:07.561Z,65.47
2016-08-25T00:55:08.183Z,65.17
2016-08-25T00:56:08.802Z,64.59
2016-08-25T00:57:09.445Z,64.89
2016-08-25T00:58:10.073Z,64.79
2016-08-25T00:59:10.708Z,65.37
2016-08-25T01:00:11.333Z,64.4
2016-08-25T01:01:11.966Z,64.5
2016-08-25T01:02:12.585Z,64.69
2016-08-25T01:03:13.208Z,64.69
2016-08-25T01:04:13.831Z,64.98
2016-08-25T01:05:14.465Z,64.59
2016-08-25T01:06:15.101Z,65.17
2016-08-25T01:07:15.728Z,64.98
2016-08-25T01:08:16.361Z,64.76
2016-08-25T01:09:16.985Z,64.89
2016-08-25T01:10:17.607Z,64.89
2016-08-25T01:11:18.232Z,64.89
2016-08-25T01:12:18.867Z,64.98
2016-08-25T01:13:19.488Z,65.33
2016-08-25T01:14:20.113Z,65.08
2016-08-25T01:15:20.734Z,65.14
2016-08-25T01:16:21.357Z,65.27
2016-08-25T01:17:21.990Z,65.33
2016-08-25T01:18:22.614Z,65.24
2016-08-25T01:19:23.264Z,65.24
2016-08-25T01:20:23.896Z,65.08
2016-08-25T01:21:24.510Z,65.24
2016-08-25T01:22:25.133Z,65.24
2016-08-25T01:23:25.759Z,65.43
2016-08-25T01:24:26.380Z,65.33
2016-08-25T01:25:27.010Z,65.14
2016-08-25T01:26:27.620Z,65.05
2016-08-25T01:27:28.240Z,65.43
2016-08-25T01:28:28.863Z,65.91
2016-08-25T01:29:29.490Z,66.01
2016-08-25T01:30:30.123Z,65.24
2016-08-25T01:31:30.743Z,65.91
2016-08-25T01:32:31.367Z,65.63
2016-08-25T01:33:31.992Z,65.81
2016-08-25T01:34:32.610Z,65.72
2016-08-25T01:35:33.234Z,65.33
2016-08-25T01:36:33.871Z,65.63
2016-08-25T01:37:34.498Z,65.43
2016-08-25T01:38:35.142Z,65.33
2016-08-25T01:39:35.778Z,65.05
2016-08-25T01:40:36.411Z,65.43
2016-08-25T01:41:37.042Z,65.63
2016-08-25T01:42:37.667Z,65.53
2016-08-25T01:43:38.285Z,65.05
2016-08-25T01:44:38.902Z,65.14
2016-08-25T01:45:39.527Z,65.43
2016-08-25T01:46:40.157Z,65.53
2016-08-25T01:47:40.774Z,65.53
2016-08-25T01:48:41.389Z,65.33
2016-08-25T01:49:42.025Z,65.72
2016-08-25T01:50:42.647Z,65.63
2016-08-25T01:51:43.295Z,65.72
2016-08-25T01:52:43.916Z,65.72
2016-08-25T01:53:44.539Z,66.11
2016-08-25T01:54:45.162Z,65.53
2016-08-25T01:55:45.808Z,65.72
2016-08-25T01:56:46.439Z,65.63
2016-08-25T01:57:47.068Z,65.72
2016-08-25T01:58:47.692Z,65.91
2016-08-25T01:59:48.315Z,66.07
2016-08-25T02:00:48.955Z,66.2
2016-08-25T02:01:49.583Z,66.17
2016-08-25T02:02:50.212Z,66.39
2016-08-25T02:03:50.842Z,66.27
2016-08-25T02:04:51.468Z,66.07
2016-08-25T02:05:52.117Z,66.36
2016-08-25T02:06:52.742Z,66.01
2016-08-25T02:07:53.365Z,66.46
2016-08-25T02:08:53.986Z,66.17
2016-08-25T02:09:54.603Z,65.98
2016-08-25T02:10:55.246Z,66.07
2016-08-25T02:11:55.876Z,66.27
2016-08-25T02:12:56.515Z,66.27
2016-08-25T02:13:57.140Z,66.39
2016-08-25T02:14:57.769Z,66.17
2016-08-25T02:15:58.432Z,66.36
2016-08-25T02:16:59.057Z,66.17
2016-08-25T02:17:59.685Z,66.27
2016-08-25T02:19:00.307Z,66.65
2016-08-25T02:20:00.924Z,66.36
2016-08-25T02:21:01.550Z,66.36
2016-08-25T02:22:02.173Z,66.46
2016-08-25T02:23:02.790Z,66.94
2016-08-25T02:24:03.410Z,66.85
2016-08-25T02:25:04.035Z,66.94
2016-08-25T02:26:04.650Z,66.55
2016-08-25T02:27:05.286Z,66.85
2016-08-25T02:28:05.912Z,66.85
2016-08-25T02:29:06.538Z,66.65
2016-08-25T02:30:07.173Z,66.85
2016-08-25T02:31:07.790Z,66.85
2016-08-25T02:32:08.427Z,66.55
2016-08-25T02:33:09.056Z,66.36
2016-08-25T02:34:09.681Z,66.65
2016-08-25T02:35:10.301Z,66.75
2016-08-25T02:36:10.928Z,66.75
2016-08-25T02:37:11.550Z,66.55
2016-08-25T02:38:12.173Z,66.75
2016-08-25T02:39:12.810Z,66.75
2016-08-25T02:40:13.439Z,66.94
2016-08-25T02:41:14.060Z,66.85
2016-08-25T02:42:14.689Z,66.75
2016-08-25T02:43:15.308Z,67.13
2016-08-25T02:44:15.932Z,67.71
2016-08-25T02:45:16.557Z,67.13
2016-08-25T02:46:17.178Z,67.03
2016-08-25T02:47:17.810Z,67.03
2016-08-25T02:48:18.443Z,67.71
2016-08-25T02:49:19.079Z,67.49
2016-08-25T02:50:19.705Z,67.77
2016-08-25T02:51:20.321Z,67.49
2016-08-25T02:52:20.957Z,67.52
2016-08-25T02:53:21.578Z,67.42
2016-08-25T02:54:22.212Z,67.49
2016-08-25T02:55:22.846Z,67.77
2016-08-25T02:56:23.469Z,67.87
2016-08-25T02:57:24.095Z,67.29
2016-08-25T02:58:24.723Z,67.33
2016-08-25T02:59:25.358Z,67.39
2016-08-25T03:00:25.982Z,67.77
2016-08-25T03:01:26.623Z,67.77
2016-08-25T03:02:27.255Z,67.68
2016-08-25T03:03:27.894Z,67.68
2016-08-25T03:04:28.527Z,67.97
2016-08-25T03:05:29.143Z,67.58
2016-08-25T03:06:29.768Z,67.87
2016-08-25T03:07:30.386Z,67.39
2016-08-25T03:08:31.012Z,67.61
2016-08-25T03:09:31.639Z,67.97
2016-08-25T03:10:32.269Z,67.97
2016-08-25T03:11:32.902Z,68.06
2016-08-25T03:12:33.529Z,67.68
2016-08-25T03:13:34.170Z,67.87
2016-08-25T03:14:34.797Z,67.49
2016-08-25T03:15:35.418Z,67.87
2016-08-25T03:16:36.039Z,67.77
2016-08-25T03:17:36.662Z,67.49
2016-08-25T03:18:37.297Z,67.97
2016-08-25T03:19:37.945Z,67.87
2016-08-25T03:20:38.570Z,67.68
2016-08-25T03:21:39.195Z,67.81
2016-08-25T03:22:39.820Z,67.77
2016-08-25T03:23:40.445Z,68.26
2016-08-25T03:24:41.074Z,68.06
2016-08-25T03:25:41.701Z,68.16
2016-08-25T03:26:42.328Z,67.97
2016-08-25T03:27:42.947Z,67.58
2016-08-25T03:28:43.566Z,68.26
2016-08-25T03:29:44.210Z,68.26
2016-08-25T03:30:44.839Z,67.97
2016-08-25T03:31:45.469Z,68.26
2016-08-25T03:32:46.086Z,68.26
2016-08-25T03:33:46.714Z,68.06
2016-08-25T03:34:47.340Z,68.06
2016-08-25T03:35:47.962Z,68.16
2016-08-25T03:36:48.582Z,68.26
2016-08-25T03:37:49.213Z,68.44
2016-08-25T03:38:49.869Z,68.16
2016-08-25T03:39:50.509Z,68.64
2016-08-25T03:40:51.135Z,68.26
2016-08-25T03:41:51.786Z,67.97
2016-08-25T03:42:52.416Z,68.06
2016-08-25T03:43:53.048Z,68.35
2016-08-25T03:44:53.666Z,68.64
2016-08-25T03:45:54.315Z,68.26
2016-08-25T03:46:54.938Z,68.06
2016-08-25T03:47:55.558Z,68.16
2016-08-25T03:48:56.184Z,68.54
2016-08-25T03:49:56.805Z,68.93
2016-08-25T03:50:57.439Z,68.84
2016-08-25T03:51:58.061Z,68.26
2016-08-25T03:52:58.683Z,68.35
2016-08-25T03:53:59.303Z,68.74
2016-08-25T03:54:59.926Z,68.64
2016-08-25T03:56:00.543Z,68.74
2016-08-25T03:57:01.172Z,69.31
2016-08-25T03:58:01.799Z,68.35
2016-08-25T03:59:02.424Z,69.22
2016-08-25T04:00:03.048Z,69.02
2016-08-25T04:01:03.672Z,69.02
2016-08-25T04:02:04.291Z,69.12
2016-08-25T04:03:04.931Z,68.84
2016-08-25T04:04:05.565Z,69.22
2016-08-25T04:05:06.188Z,69.28
2016-08-25T04:06:06.810Z,69.31
2016-08-25T04:07:07.431Z,68.93
2016-08-25T04:08:08.050Z,69.22
2016-08-25T04:09:08.680Z,69.38
2016-08-25T04:10:09.314Z,69.22
2016-08-25T04:11:09.939Z,69.02
2016-08-25T04:12:10.580Z,69.02
2016-08-25T04:13:11.202Z,69.57
2016-08-25T04:14:11.821Z,69.6
2016-08-25T04:15:12.443Z,69.47
2016-08-25T04:16:13.066Z,69.67
2016-08-25T04:17:13.686Z,69.51
2016-08-25T04:18:14.306Z,69.67
2016-08-25T04:19:14.934Z,69.12
2016-08-25T04:20:15.558Z,69.7
2016-08-25T04:21:16.180Z,69.41
2016-08-25T04:22:16.800Z,69.41
2016-08-25T04:23:17.444Z,68.84
2016-08-25T04:24:18.080Z,69.02
2016-08-25T04:25:18.724Z,69.47
2016-08-25T04:26:19.358Z,69.47
2016-08-25T04:27:19.984Z,69.85
2016-08-25T04:28:20.608Z,69.79
2016-08-25T04:29:21.228Z,69.47
2016-08-25T04:30:21.848Z,69.89
2016-08-25T04:31:22.489Z,69.67
2016-08-25T04:32:23.116Z,69.85
2016-08-25T04:33:23.739Z,69.57
2016-08-25T04:34:24.361Z,69.47
2016-08-25T04:35:24.979Z,69.85
2016-08-25T04:36:25.601Z,69.76
2016-08-25T04:37:26.221Z,69.57
2016-08-25T04:38:26.855Z,69.95
2016-08-25T04:39:27.480Z,69.76
2016-08-25T04:40:28.108Z,69.85
2016-08-25T04:41:28.732Z,69.85
2016-08-25T04:42:29.357Z,69.47
2016-08-25T04:43:29.979Z,69.57
2016-08-25T04:44:30.603Z,69.67
2016-08-25T04:45:31.220Z,69.47
2016-08-25T04:46:31.848Z,69.47
2016-08-25T04:47:32.482Z,69.47
2016-08-25T04:48:33.104Z,69.76
2016-08-25T04:49:33.715Z,69.57
2016-08-25T04:50:34.358Z,69.51
2016-08-25T04:51:34.982Z,69.51
2016-08-25T04:52:35.607Z,69.67
2016-08-25T04:53:36.230Z,69.67
2016-08-25T04:54:36.850Z,69.67
2016-08-25T04:55:37.482Z,69.76
2016-08-25T04:56:38.126Z,69.67
2016-08-25T04:57:38.757Z,70.05
2016-08-25T04:58:39.380Z,69.57
2016-08-25T04:59:39.999Z,69.76
2016-08-25T05:00:40.620Z,69.47
2016-08-25T05:01:41.244Z,69.47
2016-08-25T05:02:41.867Z,69.85
2016-08-25T05:03:42.489Z,69.76
2016-08-25T05:04:43.104Z,69.67
2016-08-25T05:05:43.733Z,69.57
2016-08-25T05:06:44.362Z,69.67
2016-08-25T05:07:44.992Z,69.6
2016-08-25T05:08:45.612Z,69.28
2016-08-25T05:09:46.241Z,69.6
2016-08-25T05:10:46.858Z,69.51
2016-08-25T05:11:47.505Z,69.47
2016-08-25T05:12:48.134Z,69.47
2016-08-25T05:13:48.765Z,69.41
2016-08-25T05:14:49.387Z,69.6
2016-08-25T05:15:50.008Z,69.22
2016-08-25T05:16:50.634Z,69.02
2016-08-25T05:17:51.279Z,68.93
2016-08-25T05:18:51.907Z,69.22
2016-08-25T05:19:52.570Z,69.41
2016-08-25T05:20:53.191Z,69.22
2016-08-25T05:21:53.818Z,69.12
2016-08-25T05:22:54.453Z,68.74
2016-08-25T05:23:55.081Z,69.41
2016-08-25T05:24:55.696Z,69.31
2016-08-25T05:25:56.340Z,69.12
2016-08-25T05:26:56.969Z,69.6
2016-08-25T05:27:57.652Z,69.51
2016-08-25T05:28:58.278Z,69.02
2016-08-25T05:29:58.931Z,68.74
2016-08-25T05:30:59.560Z,69.02
2016-08-25T05:32:00.199Z,68.84
2016-08-25T05:33:00.819Z,69.02
2016-08-25T05:34:01.439Z,69.02
2016-08-25T05:35:02.066Z,69.22
2016-08-25T05:36:02.684Z,69.02
2016-08-25T05:37:03.327Z,68.16
2016-08-25T05:38:03.965Z,68.64
2016-08-25T05:39:04.590Z,68.74
2016-08-25T05:40:05.227Z,68.64
2016-08-25T05:41:05.854Z,68.74
2016-08-25T05:42:06.478Z,68.35
2016-08-25T05:43:07.122Z,68.44
2016-08-25T05:44:07.760Z,68.54
2016-08-25T05:45:08.380Z,68.64
2016-08-25T05:46:09.010Z,68.35
2016-08-25T05:47:09.643Z,68.35
2016-08-25T05:48:10.266Z,68.64
2016-08-25T05:49:10.887Z,68.44
2016-08-25T05:50:11.506Z,68.26
2016-08-25T05:51:12.134Z,67.58
2016-08-25T05:52:12.768Z,67.71
2016-08-25T05:53:13.410Z,67.9
2016-08-25T05:54:14.044Z,67.42
2016-08-25T05:55:14.663Z,67.61
2016-08-25T05:56:15.283Z,67.03
2016-08-25T05:57:15.909Z,67.33
2016-08-25T05:58:16.532Z,66.85
2016-08-25T05:59:17.156Z,66.78
2016-08-25T06:00:17.793Z,66.11
2016-08-25T06:01:18.435Z,66.11
2016-08-25T06:02:19.051Z,65.63
2016-08-25T06:03:19.675Z,65.53
2016-08-25T06:04:20.297Z,65.43
2016-08-25T06:05:20.929Z,65.33
2016-08-25T06:06:21.577Z,64.86
2016-08-25T06:07:22.245Z,65.43
2016-08-25T06:08:22.880Z,65.14
2016-08-25T06:09:23.509Z,64.5
2016-08-25T06:10:24.130Z,64.86
2016-08-25T06:11:24.765Z,64.95
2016-08-25T06:12:25.390Z,65.08
2016-08-25T06:13:26.037Z,64.98
2016-08-25T06:14:26.666Z,64.89
2016-08-25T06:15:27.298Z,64.02
2016-08-25T06:16:27.923Z,64.15
2016-08-25T06:17:28.553Z,63.73
2016-08-25T06:18:29.179Z,63.73
2016-08-25T06:19:29.813Z,63.92
2016-08-25T06:20:30.437Z,64.11
2016-08-25T06:21:31.059Z,64.02
2016-08-25T06:22:31.687Z,64.02
2016-08-25T06:23:32.327Z,63.85
2016-08-25T06:24:32.956Z,64.15
2016-08-25T06:25:33.578Z,63.57
2016-08-25T06:26:34.211Z,62.89
2016-08-25T06:27:34.843Z,63.85
2016-08-25T06:28:35.476Z,63.09
2016-08-25T06:29:36.123Z,63.18
2016-08-25T06:30:36.791Z,63.18
2016-08-25T06:31:37.421Z,63.09
2016-08-25T06:32:38.043Z,62.51
2016-08-25T06:33:38.672Z,62.89
2016-08-25T06:34:39.301Z,62.7
2016-08-25T06:35:39.930Z,63.18
2016-08-25T06:36:40.548Z,62.89
2016-08-25T06:37:41.182Z,62.6
2016-08-25T06:38:41.804Z,62.89
2016-08-25T06:39:42.428Z,62.99
2016-08-25T06:40:43.058Z,62.89
2016-08-25T06:41:43.692Z,63.09
2016-08-25T06:42:44.327Z,62.51
2016-08-25T06:43:44.956Z,62.41
2016-08-25T06:44:45.591Z,62.34
2016-08-25T06:45:46.220Z,61.96
2016-08-25T06:46:46.859Z,62.44
2016-08-25T06:47:47.498Z,61.57
2016-08-25T06:48:48.132Z,62.15
2016-08-25T06:49:48.776Z,62.05
2016-08-25T06:50:49.408Z,61.7
2016-08-25T06:51:50.036Z,61.41
2016-08-25T06:52:50.669Z,61.89
2016-08-25T06:53:51.300Z,61.12
2016-08-25T06:54:51.970Z,61.57
2016-08-25T06:55:52.607Z,61.51
2016-08-25T06:56:53.232Z,61.12
2016-08-25T06:57:53.853Z,61.31
2016-08-25T06:58:54.476Z,61.12
2016-08-25T06:59:55.097Z,60.64
2016-08-25T07:00:55.718Z,61.31
2016-08-25T07:01:56.353Z,60.83
2016-08-25T07:02:56.994Z,60.64
2016-08-25T07:03:57.635Z,60.76
2016-08-25T07:04:58.247Z,60.28
2016-08-25T07:05:58.868Z,60.76
2016-08-25T07:06:59.497Z,60.09
2016-08-25T07:08:00.123Z,59.89
2016-08-25T07:09:00.747Z,59.99
2016-08-25T07:10:01.371Z,59.8
2016-08-25T07:11:02.002Z,59.8
2016-08-25T07:12:02.634Z,59.7
2016-08-25T07:13:03.271Z,59.6
2016-08-25T07:14:03.897Z,59.99
2016-08-25T07:15:04.527Z,59.63
2016-08-25T07:16:05.161Z,60.11
2016-08-25T07:17:05.799Z,59.83
2016-08-25T07:18:06.443Z,59.51
2016-08-25T07:19:07.060Z,59.25
2016-08-25T07:20:07.687Z,59.25
2016-08-25T07:21:08.307Z,59.25
2016-08-25T07:22:08.930Z,59.25
2016-08-25T07:23:09.552Z,59.44
2016-08-25T07:24:10.169Z,60.11
2016-08-25T07:25:10.794Z,58.95
2016-08-25T07:26:11.431Z,59.34
2016-08-25T07:27:12.070Z,59.25
2016-08-25T07:28:12.707Z,59.15
2016-08-25T07:29:13.330Z,58.37
2016-08-25T07:30:13.970Z,58.93
2016-08-25T07:31:14.594Z,60.02
2016-08-25T07:32:15.309Z,59.25
2016-08-25T07:33:15.941Z,58.95
2016-08-25T07:34:16.562Z,58.67
2016-08-25T07:35:17.189Z,58.5
2016-08-25T07:36:17.815Z,58.4
2016-08-25T07:37:18.460Z,58.4
2016-08-25T07:38:19.098Z,59.05
2016-08-25T07:39:19.727Z,59.25
2016-08-25T07:40:20.348Z,59.05
2016-08-25T07:41:20.969Z,59.56
2016-08-25T07:42:21.591Z,58.7
2016-08-25T07:43:22.212Z,58.31
2016-08-25T07:44:22.852Z,58.86
2016-08-25T07:45:23.481Z,59.25
2016-08-25T07:46:24.129Z,59.34
2016-08-25T07:47:24.753Z,59.05
2016-08-25T07:48:25.381Z,59.44
2016-08-25T07:49:26.014Z,58.7
2016-08-25T07:50:26.660Z,58.8
2016-08-25T07:51:27.297Z,58.7
2016-08-25T07:52:27.935Z,58.6
2016-08-25T07:53:28.571Z,58.34
2016-08-25T07:54:29.215Z,58.6
2016-08-25T07:55:29.838Z,58.31
2016-08-25T07:56:30.469Z,58.6
2016-08-25T07:57:31.104Z,58.31
2016-08-25T07:58:31.734Z,58.4
2016-08-25T07:59:32.383Z,58.6
2016-08-25T08:00:33.006Z,58.47
2016-08-25T08:01:33.639Z,58.7
2016-08-25T08:02:34.270Z,58.31
2016-08-25T08:03:34.899Z,58.6
2016-08-25T08:04:35.538Z,58.5
2016-08-25T08:05:36.166Z,58.31
2016-08-25T08:06:36.807Z,59.38
2016-08-25T08:07:37.458Z,59.18
2016-08-25T08:08:38.086Z,58.6
2016-08-25T08:09:38.715Z,58.53
2016-08-25T08:10:39.362Z,58.12
2016-08-25T08:11:40.021Z,58.31
2016-08-25T08:12:40.671Z,58.63
2016-08-25T08:13:41.298Z,58.12
2016-08-25T08:14:41.921Z,58.5
2016-08-25T08:15:42.556Z,58.04
2016-08-25T08:16:43.201Z,57.95
2016-08-25T08:17:43.843Z,58.44
2016-08-25T08:18:44.465Z,58.04
2016-08-25T08:19:45.087Z,58.53
2016-08-25T08:20:45.720Z,58.53
2016-08-25T08:21:46.360Z,58.44
2016-08-25T08:22:46.989Z,58.63
2016-08-25T08:23:47.621Z,57.95
2016-08-25T08:24:48.257Z,58.04
2016-08-25T08:25:48.892Z,57.95
2016-08-25T08:26:49.534Z,57.69
2016-08-25T08:27:50.197Z,57.88
2016-08-25T08:28:50.829Z,57.66
2016-08-25T08:29:51.454Z,57.66
2016-08-25T08:30:52.085Z,57.69
2016-08-25T08:31:52.709Z,57.76
2016-08-25T08:32:53.334Z,57.76
2016-08-25T08:33:53.974Z,58.24
2016-08-25T08:34:54.632Z,58.53
2016-08-25T08:35:55.242Z,58.24
2016-08-25T08:36:55.869Z,58.34
2016-08-25T08:37:56.513Z,58.34
2016-08-25T08:38:57.146Z,58.72
2016-08-25T08:39:57.775Z,58.07
2016-08-25T08:40:58.611Z,58.07
2016-08-25T08:41:59.028Z,57.76
2016-08-25T08:42:59.666Z,57.86
2016-08-25T08:44:00.294Z,57.69
2016-08-25T08:45:00.926Z,57.79
2016-08-25T08:46:01.558Z,57.88
2016-08-25T08:47:02.209Z,58.04
2016-08-25T08:48:02.845Z,57.98
2016-08-25T08:49:03.480Z,58.56
2016-08-25T08:50:04.109Z,57.88
2016-08-25T08:51:04.751Z,57.59
2016-08-25T08:52:05.379Z,57.88
2016-08-25T08:53:06.004Z,57.91
2016-08-25T08:54:06.636Z,57.5
2016-08-25T08:55:07.263Z,57.98
2016-08-25T08:56:07.894Z,57.79
2016-08-25T08:57:08.525Z,57.62
2016-08-25T08:58:09.151Z,57.5
2016-08-25T08:59:09.786Z,57.43
2016-08-25T09:00:10.422Z,57.23
2016-08-25T09:01:11.058Z,57.81
2016-08-25T09:02:11.686Z,57.4
2016-08-25T09:03:12.318Z,57.91
2016-08-25T09:04:12.954Z,57.88
2016-08-25T09:05:13.570Z,58.17
2016-08-25T09:06:14.212Z,58.07
2016-08-25T09:07:14.846Z,57.71
2016-08-25T09:08:15.475Z,57.71
2016-08-25T09:09:16.109Z,57.81
2016-08-25T09:10:16.740Z,57.53
2016-08-25T09:11:17.379Z,57.81
2016-08-25T09:12:18.012Z,57.53
2016-08-25T09:13:18.640Z,57.91
2016-08-25T09:14:19.267Z,57.91
2016-08-25T09:15:19.905Z,57.36
2016-08-25T09:16:20.541Z,56.94
2016-08-25T09:17:21.167Z,57.71
2016-08-25T09:18:21.834Z,57.26
2016-08-25T09:19:22.456Z,57.17
2016-08-25T09:20:23.079Z,57.62
2016-08-25T09:21:23.710Z,57.33
2016-08-25T09:22:24.338Z,56.94
2016-08-25T09:23:24.971Z,57.81
2016-08-25T09:24:25.605Z,57.71
2016-08-25T09:25:26.235Z,57.75
2016-08-25T09:26:26.872Z,57.26
2016-08-25T09:27:27.516Z,56.87
2016-08-25T09:28:28.147Z,57.17
2016-08-25T09:29:28.828Z,56.87
2016-08-25T09:30:29.457Z,57.17
2016-08-25T09:31:30.106Z,57.07
2016-08-25T09:32:31.519Z,57.26
2016-08-25T09:33:32.352Z,56.77
2016-08-25T09:34:33.170Z,56.1
2016-08-25T09:35:33.823Z,56
2016-08-25T09:36:34.619Z,55.71
2016-08-25T09:37:36.500Z,56.49
2016-08-25T09:38:37.544Z,55.81
2016-08-25T09:39:38.301Z,56.1
2016-08-25T09:40:39.125Z,55.74
2016-08-25T09:41:39.753Z,55.74
2016-08-25T09:42:40.493Z,55.54
2016-08-25T09:43:41.235Z,54.96
2016-08-25T09:44:41.869Z,55.26
2016-08-25T09:45:42.494Z,55.16
2016-08-25T09:46:43.130Z,55.26
2016-08-25T09:47:43.788Z,55.26
2016-08-25T09:48:44.458Z,55.74
2016-08-25T09:49:45.095Z,56.03
2016-08-25T09:50:45.718Z,55.26
2016-08-25T09:51:46.351Z,55.44
2016-08-25T09:52:46.980Z,55.64
2016-08-25T09:53:47.619Z,55.16
2016-08-25T09:54:48.674Z,54.28
2016-08-25T09:55:49.326Z,54.38
2016-08-25T09:56:49.954Z,54.48
2016-08-25T09:57:50.635Z,54.19
2016-08-25T09:58:51.370Z,54.38
2016-08-25T09:59:52.099Z,54.38
2016-08-25T10:00:53.161Z,54.96
2016-08-25T10:01:53.826Z,54.31
2016-08-25T10:02:54.563Z,54.11
2016-08-25T10:03:55.275Z,53.73
2016-08-25T10:04:56.005Z,54.21
2016-08-25T10:05:57.130Z,54.99
2016-08-25T10:06:57.781Z,54.6
2016-08-25T10:07:58.484Z,54.21
2016-08-25T10:08:59.116Z,53.34
2016-08-25T10:09:59.802Z,53.53
2016-08-25T10:11:00.436Z,53.44
2016-08-25T10:12:01.101Z,53.63
2016-08-25T10:13:01.843Z,54.02
2016-08-25T10:14:02.497Z,53.53
2016-08-25T10:15:03.130Z,53.24
2016-08-25T10:16:04.036Z,53.15
2016-08-25T10:17:04.730Z,53.22
2016-08-25T10:18:05.366Z,53.15
2016-08-25T10:19:06.010Z,54.31
2016-08-25T10:20:06.629Z,53.95
2016-08-25T10:21:07.263Z,53.53
2016-08-25T10:22:07.892Z,53.73
2016-08-25T10:23:08.531Z,54.02
2016-08-25T10:24:09.174Z,54.14
2016-08-25T10:25:09.829Z,53.37
2016-08-25T10:26:10.454Z,53.34
2016-08-25T10:27:11.079Z,52.95
2016-08-25T10:28:11.713Z,53.53
2016-08-25T10:29:12.338Z,54.11
2016-08-25T10:30:12.973Z,54.31
2016-08-25T10:31:13.614Z,54.11
2016-08-25T10:32:14.237Z,53.24
2016-08-25T10:33:14.866Z,53.37
2016-08-25T10:34:15.494Z,53.17
2016-08-25T10:35:16.125Z,53.27
2016-08-25T10:36:16.753Z,54.05
2016-08-25T10:37:17.403Z,53.75
2016-08-25T10:38:18.063Z,54.14
2016-08-25T10:39:18.693Z,54.24
2016-08-25T10:40:19.348Z,54.9
2016-08-25T10:41:19.993Z,55.57
2016-08-25T10:42:20.649Z,56.32
2016-08-25T10:43:21.285Z,55.08
2016-08-25T10:44:21.934Z,53.75
2016-08-25T10:45:22.572Z,52.98
2016-08-25T10:46:23.196Z,52.42
2016-08-25T10:47:23.830Z,52.42
2016-08-25T10:48:24.484Z,52.42
2016-08-25T10:49:25.110Z,52.78
2016-08-25T10:50:25.742Z,52.72
2016-08-25T10:51:26.383Z,52.62
2016-08-25T10:52:27.085Z,52.23
2016-08-25T10:53:27.720Z,52.42
2016-08-25T10:54:28.367Z,52.62
2016-08-25T10:55:28.991Z,52.03
2016-08-25T10:56:29.666Z,51.84
2016-08-25T10:57:30.335Z,51.28
2016-08-25T10:58:30.965Z,51.18
2016-08-25T10:59:31.611Z,51.18
2016-08-25T11:00:32.232Z,51.55
2016-08-25T11:01:32.865Z,51.77
2016-08-25T11:02:33.498Z,51.55
2016-08-25T11:03:34.123Z,51.84
2016-08-25T11:04:34.752Z,51.26
2016-08-25T11:05:35.396Z,50.51
2016-08-25T11:06:36.027Z,51.38
2016-08-25T11:07:36.662Z,50.31
2016-08-25T11:08:37.303Z,50.31
2016-08-25T11:09:37.945Z,49.99
2016-08-25T11:10:38.570Z,50.68
2016-08-25T11:11:39.207Z,51.35
2016-08-25T11:12:39.840Z,51.06
2016-08-25T11:13:40.465Z,50.58
2016-08-25T11:14:41.101Z,50.87
2016-08-25T11:15:41.735Z,50.77
2016-08-25T11:16:42.378Z,51.16
2016-08-25T11:17:43.018Z,50.38
2016-08-25T11:18:43.667Z,51.35
2016-08-25T11:19:44.351Z,50.48
2016-08-25T11:20:44.993Z,50.6
2016-08-25T11:21:45.627Z,50.96
2016-08-25T11:22:46.250Z,50.12
2016-08-25T11:23:46.878Z,50.51
2016-08-25T11:24:47.516Z,50.02
2016-08-25T11:25:48.169Z,49.46
2016-08-25T11:26:48.791Z,49.66
2016-08-25T11:27:49.439Z,49.76
2016-08-25T11:28:50.092Z,50.31
2016-08-25T11:29:50.723Z,49.92
2016-08-25T11:30:51.345Z,50.21
2016-08-25T11:31:51.989Z,49.82
2016-08-25T11:32:52.616Z,48.68
2016-08-25T11:33:53.246Z,48.97
2016-08-25T11:34:53.869Z,49.56
2016-08-25T11:35:54.514Z,49.63
2016-08-25T11:36:55.147Z,49.66
2016-08-25T11:37:55.773Z,49.07
2016-08-25T11:38:56.413Z,48.68
2016-08-25T11:39:57.056Z,49.92
2016-08-25T11:40:57.690Z,48.97
2016-08-25T11:41:58.319Z,49.76
2016-08-25T11:42:58.951Z,48.85
2016-08-25T11:43:59.599Z,49.17
2016-08-25T11:45:20.138Z,48.97
2016-08-25T11:46:20.768Z,48.88
2016-08-25T11:47:21.441Z,48.88
2016-08-25T11:48:22.121Z,48.68
2016-08-25T11:49:22.749Z,48.58
2016-08-25T11:50:23.393Z,47.74
2016-08-25T11:51:24.056Z,48.68
2016-08-25T11:52:24.695Z,47.81
2016-08-25T11:53:25.323Z,48.39
2016-08-25T11:54:25.947Z,47.61
2016-08-25T11:55:26.577Z,47.42
2016-08-25T11:56:27.203Z,47.32
2016-08-25T11:57:27.842Z,46.77
2016-08-25T11:58:28.477Z,46.67
2016-08-25T11:59:29.104Z,46.86
2016-08-25T12:00:29.727Z,46.86
2016-08-25T12:01:30.360Z,46.77
2016-08-25T12:02:30.991Z,45.62
2016-08-25T12:03:31.623Z,46.11
2016-08-25T12:04:32.264Z,46.37
2016-08-25T12:05:32.901Z,46.94
2016-08-25T12:06:33.540Z,46.86
2016-08-25T12:07:34.186Z,46.28
2016-08-25T12:08:34.817Z,45.4
2016-08-25T12:09:35.451Z,45.81
2016-08-25T12:10:36.073Z,45.4
2016-08-25T12:11:36.715Z,45.79
2016-08-25T12:12:37.339Z,45.98
2016-08-25T12:13:37.974Z,46.18
2016-08-25T12:14:38.602Z,45.79
2016-08-25T12:15:39.255Z,46.06
2016-08-25T12:16:39.880Z,45.31
2016-08-25T12:17:40.509Z,44.62
2016-08-25T12:18:41.150Z,44.43
2016-08-25T12:19:41.781Z,44.62
2016-08-25T12:20:42.412Z,44.35
2016-08-25T12:21:43.054Z,44.16
2016-08-25T12:22:43.677Z,44.26
2016-08-25T12:23:44.322Z,44.06
2016-08-25T12:24:44.946Z,44.06
2016-08-25T12:25:45.584Z,44.26
2016-08-25T12:26:46.206Z,44.35
2016-08-25T12:27:46.837Z,44.06
2016-08-25T12:28:47.494Z,44.53
2016-08-25T12:29:48.126Z,44.16
2016-08-25T12:30:48.772Z,44.55
2016-08-25T12:31:49.400Z,44.06
2016-08-25T12:32:50.023Z,44.09
2016-08-25T12:33:50.692Z,44.09
2016-08-25T12:34:51.300Z,43.67
2016-08-25T12:35:51.928Z,44.06
2016-08-25T12:36:52.559Z,44.06
2016-08-25T12:37:53.182Z,44.55
2016-08-25T12:38:53.808Z,44.26
2016-08-25T12:39:54.442Z,43.21
2016-08-25T12:40:55.080Z,43.11
2016-08-25T12:41:55.708Z,42.82
2016-08-25T12:42:56.354Z,43.01
2016-08-25T12:43:56.988Z,43.01
2016-08-25T12:44:57.640Z,43.01
2016-08-25T12:45:58.289Z,42.91
2016-08-25T12:46:58.915Z,42.63
2016-08-25T12:47:59.555Z,42.14
2016-08-25T12:49:00.214Z,42.21
2016-08-25T12:50:00.843Z,42.8
2016-08-25T12:51:01.516Z,42.8
2016-08-25T12:52:02.142Z,43.19
2016-08-25T12:53:02.779Z,42.8
2016-08-25T12:54:03.410Z,43.01
2016-08-25T12:55:04.041Z,42.14
2016-08-25T12:56:04.675Z,42.14
2016-08-25T12:57:05.302Z,42.25
2016-08-25T12:58:05.937Z,41.85
2016-08-25T12:59:06.567Z,42.24
2016-08-25T13:00:07.189Z,42.24
2016-08-25T13:01:07.819Z,42.14
2016-08-25T13:02:08.450Z,42.24
2016-08-25T13:03:09.090Z,42.04